createdAt,value
2023-03-17T00:01:47.923Z,98107.56
2023-03-17T00:04:49.676Z,98110.75
2023-03-17T00:07:52.384Z,98112.63
2023-03-17T00:10:53.884Z,98117.06
2023-03-17T00:13:55.469Z,98111.09
2023-03-17T00:16:57.026Z,98123.09
2023-03-17T00:19:58.580Z,98118.72
2023-03-17T00:23:00.329Z,98099.56
2023-03-17T00:26:02.516Z,98094.47
2023-03-17T00:29:05.992Z,98093.72
2023-03-17T00:32:15.828Z,98101.72
2023-03-17T00:35:19.268Z,98089.56
2023-03-17T00:38:21.474Z,98085.38
2023-03-17T00:41:23.584Z,98072.44
2023-03-17T00:44:25.515Z,98075.75
2023-03-17T00:47:27.011Z,98084.38
2023-03-17T00:50:28.889Z,98086.97
2023-03-17T00:53:30.776Z,98095.53
2023-03-17T00:56:32.278Z,98099.00
2023-03-17T00:59:39.154Z,98093.03
2023-03-17T01:02:41.143Z,98093.78
2023-03-17T01:05:42.635Z,98088.69
2023-03-17T01:08:45.386Z,98078.28
2023-03-17T01:11:46.974Z,98085.22
2023-03-17T01:14:48.462Z,98080.13
2023-03-17T01:17:50.576Z,98070.47
2023-03-17T01:20:53.062Z,98069.66
2023-03-17T01:23:55.064Z,98062.06
2023-03-17T01:26:56.502Z,98062.84
2023-03-17T01:29:57.961Z,98061.16
2023-03-17T01:32:59.905Z,98053.41
2023-03-17T01:36:01.473Z,98049.94
2023-03-17T01:39:05.255Z,98039.56
2023-03-17T01:42:07.231Z,98041.22
2023-03-17T01:45:47.125Z,98044.38
2023-03-17T01:49:07.125Z,98024.63
2023-03-17T01:52:16.104Z,98026.28
2023-03-17T01:55:17.740Z,98011.72
2023-03-17T01:58:19.688Z,98012.59
2023-03-17T02:01:24.115Z,98021.22
2023-03-17T02:04:26.824Z,98015.88
2023-03-17T02:07:28.177Z,98007.53
2023-03-17T02:10:30.016Z,98004.03
2023-03-17T02:13:31.903Z,98004.09
2023-03-17T02:16:33.366Z,98012.69
2023-03-17T02:19:35.250Z,98009.34
2023-03-17T02:22:37.345Z,98001.63
2023-03-17T02:25:39.875Z,98004.28
2023-03-17T02:28:41.328Z,98003.47
2023-03-17T02:31:43.941Z,98009.50
2023-03-17T02:34:48.605Z,98014.47
2023-03-17T02:37:50.064Z,98016.88
2023-03-17T02:40:51.890Z,97987.56
2023-03-17T02:43:53.737Z,97995.28
2023-03-17T02:46:55.202Z,97990.91
2023-03-17T02:49:56.713Z,97985.56
2023-03-17T02:52:58.452Z,97988.09
2023-03-17T02:55:59.981Z,97978.56
2023-03-17T02:59:01.449Z,97973.44
2023-03-17T03:02:02.960Z,97971.56
2023-03-17T03:05:05.530Z,97966.25
2023-03-17T03:08:07.118Z,97966.16
2023-03-17T03:11:08.627Z,97956.00
2023-03-17T03:14:10.323Z,97953.63
2023-03-17T03:17:11.858Z,97957.91
2023-03-17T03:20:14.485Z,97953.41
2023-03-17T03:23:16.211Z,97948.97
2023-03-17T03:26:17.818Z,97945.50
2023-03-17T03:29:19.330Z,97946.19
2023-03-17T03:32:20.805Z,97949.41
2023-03-17T03:35:22.305Z,97942.53
2023-03-17T03:38:23.799Z,97951.13
2023-03-17T03:41:25.474Z,97951.13
2023-03-17T03:44:26.988Z,97949.47
2023-03-17T03:47:28.458Z,97945.09
2023-03-17T03:50:30.171Z,97947.47
2023-03-17T03:53:31.876Z,97953.38
2023-03-17T03:56:33.330Z,97943.06
2023-03-17T03:59:34.798Z,97937.88
2023-03-17T04:02:36.306Z,97936.22
2023-03-17T04:05:37.770Z,97937.13
2023-03-17T04:08:39.262Z,97934.47
2023-03-17T04:11:40.779Z,97939.59
2023-03-17T04:14:42.557Z,97933.53
2023-03-17T04:17:44.132Z,97938.59
2023-03-17T04:20:46.089Z,97933.44
2023-03-17T04:23:50.021Z,97927.38
2023-03-17T04:26:51.977Z,97928.63
2023-03-17T04:29:53.754Z,97926.88
2023-03-17T04:32:55.238Z,97911.63
2023-03-17T04:35:56.965Z,97918.59
2023-03-17T04:38:58.496Z,97919.44
2023-03-17T04:41:59.944Z,97924.59
2023-03-17T04:45:01.409Z,97923.63
2023-03-17T04:48:02.905Z,97920.06
2023-03-17T04:51:04.610Z,97926.13
2023-03-17T04:54:06.709Z,97920.97
2023-03-17T04:57:08.931Z,97920.81
2023-03-17T05:00:12.543Z,97925.97
2023-03-17T05:03:26.034Z,97916.38
2023-03-17T05:06:28.464Z,97915.53
2023-03-17T05:09:29.962Z,97918.00
2023-03-17T05:12:31.551Z,97921.50
2023-03-17T05:15:33.023Z,97914.47
2023-03-17T05:18:34.541Z,97920.47
2023-03-17T05:21:35.973Z,97922.03
2023-03-17T05:24:37.488Z,97921.34
2023-03-17T05:27:39.426Z,97922.03
2023-03-17T05:30:41.456Z,97921.94
2023-03-17T05:33:43.479Z,97915.69
2023-03-17T05:36:44.944Z,97922.72
2023-03-17T05:39:46.407Z,97922.78
2023-03-17T05:42:47.859Z,97926.25
2023-03-17T05:45:50.605Z,97930.59
2023-03-17T05:48:52.372Z,97925.19
2023-03-17T05:51:55.127Z,97925.34
2023-03-17T05:54:56.762Z,97929.72
2023-03-17T05:57:58.284Z,97928.72
2023-03-17T06:00:59.928Z,97935.78
2023-03-17T06:04:01.743Z,97937.66
2023-03-17T06:07:03.463Z,97929.06
2023-03-17T06:10:05.209Z,97936.00
2023-03-17T06:13:06.698Z,97935.06
2023-03-17T06:16:08.468Z,97926.59
2023-03-17T06:19:10.185Z,97924.00
2023-03-17T06:22:11.988Z,97934.50
2023-03-17T06:25:14.125Z,97942.34
2023-03-17T06:28:15.593Z,97944.41
2023-03-17T06:31:17.846Z,97951.44
2023-03-17T06:34:19.771Z,97951.34
2023-03-17T06:37:21.427Z,97945.34
2023-03-17T06:40:22.901Z,97948.94
2023-03-17T06:43:25.039Z,97949.03
2023-03-17T06:46:27.097Z,97948.69
2023-03-17T06:49:28.694Z,97942.09
2023-03-17T06:52:30.178Z,97955.97
2023-03-17T06:55:32.010Z,97956.56
2023-03-17T06:58:33.738Z,97952.44
2023-03-17T07:01:35.251Z,97953.56
2023-03-17T07:04:38.002Z,97948.72
2023-03-17T07:07:40.070Z,97958.13
2023-03-17T07:10:43.198Z,97967.78
2023-03-17T07:13:45.283Z,97976.69
2023-03-17T07:16:48.404Z,97981.22
2023-03-17T07:19:50.043Z,97993.50
2023-03-17T07:22:51.613Z,97998.78
2023-03-17T07:25:53.105Z,97997.13
2023-03-17T07:28:54.644Z,98011.13
2023-03-17T07:31:56.149Z,98014.66
2023-03-17T07:34:58.263Z,98010.53
2023-03-17T07:38:00.013Z,98016.72
2023-03-17T07:41:01.587Z,98010.78
2023-03-17T07:44:04.118Z,98015.88
2023-03-17T07:47:05.847Z,98020.28
2023-03-17T07:50:07.684Z,98013.28
2023-03-17T07:53:09.219Z,98016.75
2023-03-17T07:56:10.980Z,98009.75
2023-03-17T07:59:12.431Z,98019.13
2023-03-17T08:02:15.834Z,98017.69
2023-03-17T08:05:17.488Z,98019.75
2023-03-17T08:08:21.350Z,98023.47
2023-03-17T08:11:23.383Z,98023.66
2023-03-17T08:14:24.974Z,98030.88
2023-03-17T08:17:27.449Z,98037.09
2023-03-17T08:20:29.956Z,98038.06
2023-03-17T08:23:32.320Z,98041.53
2023-03-17T08:26:33.991Z,98047.63
2023-03-17T08:29:35.937Z,98056.38
2023-03-17T08:32:37.995Z,98052.06
2023-03-17T08:35:41.554Z,98058.97
2023-03-17T08:38:43.559Z,98048.53
2023-03-17T08:41:45.034Z,98050.94
2023-03-17T08:44:46.560Z,98066.38
2023-03-17T08:47:48.237Z,98057.41
2023-03-17T08:50:49.701Z,98053.13
2023-03-17T08:53:51.661Z,98052.88
2023-03-17T08:56:53.313Z,98048.19
2023-03-17T08:59:54.797Z,98049.06
2023-03-17T09:02:58.287Z,98053.25
2023-03-17T09:05:59.889Z,98055.03
2023-03-17T09:09:01.421Z,98055.13
2023-03-17T09:12:05.229Z,98047.50
2023-03-17T09:15:07.696Z,98048.34
2023-03-17T09:18:09.318Z,98049.19
2023-03-17T09:21:13.876Z,98043.25
2023-03-17T09:24:15.375Z,98036.53
2023-03-17T09:27:16.862Z,98021.69
2023-03-17T09:30:18.647Z,98032.59
2023-03-17T09:33:20.175Z,98029.53
2023-03-17T09:36:21.667Z,98020.94
2023-03-17T09:39:24.109Z,98027.16
2023-03-17T09:42:56.521Z,98027.50
2023-03-17T09:45:57.973Z,98013.19
2023-03-17T09:49:01.572Z,98013.00
2023-03-17T09:52:03.529Z,98023.00
2023-03-17T09:55:05.952Z,98017.28
2023-03-17T09:58:08.935Z,98022.69
2023-03-17T10:01:10.461Z,98017.31
2023-03-17T10:04:12.041Z,98016.25
2023-03-17T10:07:13.717Z,98020.16
2023-03-17T10:10:29.132Z,98006.03
2023-03-17T10:13:59.559Z,98005.41
2023-03-17T10:17:05.703Z,98005.50
2023-03-17T10:20:15.746Z,98002.31
2023-03-17T10:23:19.341Z,97995.63
2023-03-17T10:26:31.101Z,98002.41
2023-03-17T10:29:32.685Z,97988.53
2023-03-17T10:32:36.162Z,97984.06
2023-03-17T10:35:39.396Z,97983.09
2023-03-17T10:38:41.052Z,97989.59
2023-03-17T10:42:07.072Z,97991.81
2023-03-17T10:45:16.961Z,97980.78
2023-03-17T10:48:19.206Z,97981.13
2023-03-17T10:51:40.528Z,97980.16
2023-03-17T10:54:42.022Z,97976.31
2023-03-17T10:58:04.058Z,97973.75
2023-03-17T11:01:20.209Z,97971.28
2023-03-17T11:04:42.520Z,97957.94
2023-03-17T11:07:45.253Z,97963.34
2023-03-17T11:10:46.831Z,97959.50
2023-03-17T11:13:48.808Z,97945.63
2023-03-17T11:16:59.002Z,97941.97
2023-03-17T11:20:11.558Z,97956.19
2023-03-17T11:23:38.680Z,97955.41
2023-03-17T11:26:46.101Z,97949.25
2023-03-17T11:30:14.857Z,97947.41
2023-03-17T11:33:59.984Z,97943.72
2023-03-17T11:37:20.028Z,97938.03
2023-03-17T11:40:32.109Z,97936.09
2023-03-17T11:44:05.672Z,97939.25
2023-03-17T11:47:10.042Z,97938.22
2023-03-17T11:50:23.366Z,97934.50
2023-03-17T11:53:54.698Z,97927.03
2023-03-17T11:56:56.693Z,97935.69
2023-03-17T12:00:21.440Z,97935.75
2023-03-17T12:03:32.948Z,97924.31
2023-03-17T12:06:36.372Z,97935.91
2023-03-17T12:09:46.342Z,97932.81
2023-03-17T12:12:51.719Z,97935.34
2023-03-17T12:16:05.431Z,97930.34
2023-03-17T12:19:25.080Z,97931.09
2023-03-17T12:22:32.785Z,97939.47
2023-03-17T12:25:37.474Z,97925.78
2023-03-17T12:28:44.303Z,97929.44
2023-03-17T12:31:48.856Z,97933.00
2023-03-17T12:35:03.201Z,97925.28
2023-03-17T12:38:13.489Z,97926.50
2023-03-17T12:41:39.011Z,97916.53
2023-03-17T12:45:22.287Z,97910.09
2023-03-17T12:48:38.596Z,97911.31
2023-03-17T12:51:48.426Z,97906.06
2023-03-17T12:54:51.562Z,97897.91
2023-03-17T12:58:02.086Z,97903.56
2023-03-17T13:01:23.066Z,97912.16
2023-03-17T13:04:27.257Z,97905.25
2023-03-17T13:07:46.779Z,97905.91
2023-03-17T13:10:48.692Z,97899.22
2023-03-17T13:14:15.318Z,97908.88
2023-03-17T13:17:16.905Z,97900.34
2023-03-17T13:20:19.584Z,97897.88
2023-03-17T13:23:21.972Z,97895.06
2023-03-17T13:26:59.358Z,97894.44
2023-03-17T13:30:25.767Z,97893.28
2023-03-17T13:33:30.673Z,97889.38
2023-03-17T13:36:53.683Z,97886.47
2023-03-17T13:40:11.272Z,97900.69
2023-03-17T13:43:31.747Z,97894.41
2023-03-17T13:46:34.299Z,97882.53
2023-03-17T13:49:36.702Z,97893.78
2023-03-17T13:52:41.387Z,97878.56
2023-03-17T13:55:43.456Z,97888.56
2023-03-17T13:59:11.733Z,97886.66
2023-03-17T14:02:17.837Z,97883.75
2023-03-17T14:05:27.539Z,97902.31
2023-03-17T14:08:31.772Z,97891.44
2023-03-17T14:11:35.850Z,97893.16
2023-03-17T14:14:49.150Z,97887.84
2023-03-17T14:17:59.361Z,97894.38
2023-03-17T14:21:02.786Z,97885.38
2023-03-17T14:24:21.850Z,97887.03
2023-03-17T14:27:24.149Z,97886.88
2023-03-17T14:30:28.805Z,97890.16
2023-03-17T14:33:38.000Z,97865.72
2023-03-17T14:36:39.616Z,97875.16
2023-03-17T14:39:45.120Z,97881.69
2023-03-17T14:42:46.652Z,97884.16
2023-03-17T14:45:59.608Z,97874.78
2023-03-17T14:49:03.068Z,97885.84
2023-03-17T14:52:04.671Z,97866.00
2023-03-17T14:55:06.291Z,97876.31
2023-03-17T14:58:10.175Z,97888.19
2023-03-17T15:01:39.676Z,97881.84
2023-03-17T15:04:53.517Z,97870.78
2023-03-17T15:07:55.428Z,97880.09
2023-03-17T15:11:00.537Z,97879.88
2023-03-17T15:14:27.850Z,97882.63
2023-03-17T15:17:33.118Z,97876.06
2023-03-17T15:20:35.463Z,97864.53
2023-03-17T15:23:39.780Z,97875.56
2023-03-17T15:26:42.256Z,97885.06
2023-03-17T15:29:44.552Z,97880.03
2023-03-17T15:32:51.787Z,97860.69
2023-03-17T15:35:53.527Z,97875.31
2023-03-17T15:38:55.101Z,97873.41
2023-03-17T15:41:56.881Z,97866.88
2023-03-17T15:45:01.166Z,97873.19
2023-03-17T15:48:02.845Z,97875.19
2023-03-17T15:51:05.065Z,97855.16
2023-03-17T15:54:06.900Z,97877.25
2023-03-17T15:57:09.781Z,97872.66
2023-03-17T16:00:17.301Z,97860.66
2023-03-17T16:03:24.863Z,97867.09
2023-03-17T16:06:26.636Z,97862.34
2023-03-17T16:09:28.162Z,97870.34
2023-03-17T16:12:29.765Z,97880.41
2023-03-17T16:15:32.592Z,97886.50
2023-03-17T16:18:36.125Z,97881.06
2023-03-17T16:21:37.806Z,97865.88
2023-03-17T16:24:39.466Z,97875.00
2023-03-17T16:27:40.924Z,97888.16
2023-03-17T16:30:43.045Z,97885.91
2023-03-17T16:33:44.684Z,97884.22
2023-03-17T16:36:46.602Z,97873.97
2023-03-17T16:39:52.090Z,97871.81
2023-03-17T16:42:53.855Z,97874.56
2023-03-17T16:45:57.377Z,97879.59
2023-03-17T16:48:58.956Z,97900.28
2023-03-17T16:52:00.542Z,97901.44
2023-03-17T16:55:02.514Z,97898.16
2023-03-17T16:58:05.387Z,97904.09
2023-03-17T17:01:11.968Z,97904.72
2023-03-17T17:04:13.601Z,97903.19
2023-03-17T17:07:15.584Z,97903.19
2023-03-17T17:10:17.739Z,97901.56
2023-03-17T17:13:19.420Z,97915.50
2023-03-17T17:16:29.554Z,97912.09
2023-03-17T17:19:31.141Z,97912.44
2023-03-17T17:22:32.847Z,97916.88
2023-03-17T17:25:34.472Z,97922.63
2023-03-17T17:28:36.356Z,97922.78
2023-03-17T17:31:38.079Z,97933.75
2023-03-17T17:34:39.672Z,97942.88
2023-03-17T17:37:41.426Z,97951.91
2023-03-17T17:40:42.994Z,97959.63
2023-03-17T17:43:46.447Z,97958.19
2023-03-17T17:46:48.083Z,97966.56
2023-03-17T17:49:49.796Z,97953.34
2023-03-17T17:52:51.523Z,97951.38
2023-03-17T17:55:53.136Z,97954.72
2023-03-17T17:58:54.686Z,97959.25
2023-03-17T18:01:56.331Z,97968.16
2023-03-17T18:04:58.363Z,97982.66
2023-03-17T18:08:00.011Z,97990.81
2023-03-17T18:11:01.633Z,97995.66
2023-03-17T18:14:03.244Z,97996.53
2023-03-17T18:17:04.930Z,97989.97
2023-03-17T18:20:06.993Z,97990.13
2023-03-17T18:23:08.537Z,97986.84
2023-03-17T18:26:10.474Z,97987.66
2023-03-17T18:29:12.387Z,97990.81
2023-03-17T18:32:13.919Z,97987.00
2023-03-17T18:35:17.433Z,97994.09
2023-03-17T18:38:19.081Z,97992.91
2023-03-17T18:41:20.739Z,97988.78
2023-03-17T18:44:24.989Z,97991.59
2023-03-17T18:47:26.868Z,97986.19
2023-03-17T18:50:28.668Z,97990.78
2023-03-17T18:53:30.938Z,97997.19
2023-03-17T18:56:32.317Z,97992.16
2023-03-17T18:59:33.903Z,97998.28
2023-03-17T19:02:35.740Z,97996.72
2023-03-17T19:05:38.178Z,98000.47
2023-03-17T19:08:39.814Z,97997.53
2023-03-17T19:11:41.375Z,97989.88
2023-03-17T19:14:42.945Z,97982.03
2023-03-17T19:17:44.493Z,97990.00
2023-03-17T19:20:46.242Z,97991.72
2023-03-17T19:23:47.910Z,97991.69
2023-03-17T19:26:49.460Z,97992.53
2023-03-17T19:29:51.055Z,97992.78
2023-03-17T19:32:52.638Z,97996.41
2023-03-17T19:35:56.143Z,97992.16
2023-03-17T19:38:57.804Z,97997.63
2023-03-17T19:41:59.645Z,97995.19
2023-03-17T19:45:01.245Z,97999.50
2023-03-17T19:48:02.817Z,98000.41
2023-03-17T19:51:04.530Z,98005.69
2023-03-17T19:54:06.116Z,98007.34
2023-03-17T19:57:07.648Z,98001.13
2023-03-17T20:00:11.112Z,98002.31
2023-03-17T20:03:14.344Z,98006.75
2023-03-17T20:06:16.184Z,97997.25
2023-03-17T20:09:18.112Z,98004.25
2023-03-17T20:12:20.710Z,98005.81
2023-03-17T20:15:22.351Z,98015.22
2023-03-17T20:18:23.996Z,98008.22
2023-03-17T20:21:25.834Z,98010.94
2023-03-17T20:24:29.196Z,98017.00
2023-03-17T20:27:32.118Z,98010.34
2023-03-17T20:30:33.802Z,98007.03
2023-03-17T20:33:35.362Z,98014.91
2023-03-17T20:36:37.401Z,98009.72
2023-03-17T20:39:39.028Z,98010.59
2023-03-17T20:42:41.517Z,98022.56
2023-03-17T20:45:43.156Z,98026.03
2023-03-17T20:48:47.716Z,98021.78
2023-03-17T20:51:49.232Z,98016.69
2023-03-17T20:54:51.161Z,98016.56
2023-03-17T20:57:52.805Z,98027.88
2023-03-17T21:00:54.746Z,98035.78
2023-03-17T21:03:56.492Z,98038.56
2023-03-17T21:06:58.170Z,98050.69
2023-03-17T21:10:02.411Z,98039.47
2023-03-17T21:13:03.979Z,98034.25
2023-03-17T21:16:05.948Z,98043.78
2023-03-17T21:19:11.766Z,98043.81
2023-03-17T21:22:13.342Z,98051.75
2023-03-17T21:25:14.915Z,98057.81
2023-03-17T21:28:16.630Z,98052.63
2023-03-17T21:31:18.251Z,98048.22
2023-03-17T21:34:20.225Z,98053.44
2023-03-17T21:37:21.910Z,98058.66
2023-03-17T21:40:26.016Z,98060.41
2023-03-17T21:43:28.926Z,98066.50
2023-03-17T21:46:31.627Z,98071.72
2023-03-17T21:49:33.279Z,98072.59
2023-03-17T21:52:34.755Z,98069.16
2023-03-17T21:55:36.278Z,98070.91
2023-03-17T21:58:37.792Z,98063.13
2023-03-17T22:01:39.610Z,98067.44
2023-03-17T22:04:41.647Z,98067.44
2023-03-17T22:07:43.765Z,98069.22
2023-03-17T22:10:45.316Z,98062.31
2023-03-17T22:13:47.128Z,98061.47
2023-03-17T22:16:49.120Z,98064.94
2023-03-17T22:19:52.272Z,98063.22
2023-03-17T22:22:53.768Z,98070.13
2023-03-17T22:25:56.637Z,98070.97
2023-03-17T22:28:58.522Z,98077.06
2023-03-17T22:32:01.366Z,98070.97
2023-03-17T22:35:02.896Z,98077.94
2023-03-17T22:38:05.055Z,98084.00
2023-03-17T22:41:08.400Z,98090.06
2023-03-17T22:44:10.253Z,98096.13
2023-03-17T22:47:11.942Z,98088.31
2023-03-17T22:50:13.443Z,98083.13
2023-03-17T22:53:14.944Z,98084.06
2023-03-17T22:56:16.974Z,98081.47
2023-03-17T22:59:18.471Z,98078.00
2023-03-17T23:02:19.929Z,98067.63
2023-03-17T23:05:21.420Z,98075.38
2023-03-17T23:08:22.873Z,98077.97
2023-03-17T23:11:25.423Z,98067.59
2023-03-17T23:14:27.103Z,98073.63
2023-03-17T23:17:28.577Z,98084.09
2023-03-17T23:20:30.522Z,98084.97
2023-03-17T23:23:32.756Z,98085.81
2023-03-17T23:26:36.033Z,98086.72
2023-03-17T23:29:37.835Z,98091.03
2023-03-17T23:32:40.533Z,98099.69
2023-03-17T23:35:42.136Z,98093.63
2023-03-17T23:38:44.060Z,98092.78
2023-03-17T23:41:45.529Z,98106.63
2023-03-17T23:44:47.092Z,98110.97
2023-03-17T23:47:49.099Z,98098.84
2023-03-17T23:50:52.307Z,98112.66
2023-03-17T23:53:54.340Z,98110.94
2023-03-17T23:56:56.072Z,98099.69
2023-03-17T23:59:58.023Z,98117.88
